createdAt,value
2019-05-30T00:01:05.979Z,99859.13
2019-05-30T00:03:56.037Z,99868.44
2019-05-30T00:09:45.232Z,99875.91
2019-05-30T00:12:35.032Z,99871.25
2019-05-30T00:15:24.971Z,99885.38
2019-05-30T00:18:14.790Z,99894.13
2019-05-30T00:20:45.238Z,99873.79
2019-05-30T00:23:34.985Z,99870.08
2019-05-30T00:26:24.787Z,99879.95
2019-05-30T00:29:14.600Z,99881.84
2019-05-30T00:32:05.029Z,99879.72
2019-05-30T00:34:55.901Z,99889.13
2019-05-30T00:37:45.680Z,99896.98
2019-05-30T00:40:35.501Z,99894.51
2019-05-30T00:43:25.267Z,99889.50
2019-05-30T00:46:15.107Z,99891.37
2019-05-30T00:49:06.510Z,99887.48
2019-05-30T00:51:56.718Z,99890.56
2019-05-30T00:54:27.166Z,99893.20
2019-05-30T00:57:16.933Z,99914.66
2019-05-30T01:00:07.425Z,99896.27
2019-05-30T01:02:59.889Z,99899.32
2019-05-30T01:05:40.681Z,99913.48
2019-05-30T01:08:30.487Z,99916.80
2019-05-30T01:11:20.344Z,99923.16
2019-05-30T01:14:10.134Z,99904.38
2019-05-30T01:17:01.047Z,99901.38
2019-05-30T01:19:43.286Z,99902.34
2019-05-30T01:22:33.121Z,99913.02
2019-05-30T01:25:22.895Z,99897.19
2019-05-30T01:28:12.692Z,99898.00
2019-05-30T01:31:05.544Z,99891.06
2019-05-30T01:33:40.100Z,99890.67
2019-05-30T01:36:29.878Z,99882.48
2019-05-30T01:39:19.670Z,99886.28
2019-05-30T01:42:09.468Z,99891.02
2019-05-30T01:45:00.197Z,99880.23
2019-05-30T01:47:42.729Z,99902.98
2019-05-30T01:50:32.549Z,99886.33
2019-05-30T01:53:22.325Z,99886.75
2019-05-30T01:56:12.095Z,99876.88
2019-05-30T01:59:02.672Z,99886.67
2019-05-30T02:01:39.394Z,99891.37
2019-05-30T02:04:29.175Z,99897.62
2019-05-30T02:07:18.973Z,99900.69
2019-05-30T02:13:12.544Z,99898.00
2019-05-30T02:16:03.644Z,99907.75
2019-05-30T02:18:45.284Z,99901.37
2019-05-30T02:21:35.071Z,99910.61
2019-05-30T02:24:24.834Z,99905.05
2019-05-30T02:27:14.622Z,99913.14
2019-05-30T02:30:06.633Z,99916.89
2019-05-30T02:32:47.691Z,99921.16
2019-05-30T02:35:37.484Z,99918.47
2019-05-30T02:38:27.225Z,99936.42
2019-05-30T02:40:57.781Z,99913.86
2019-05-30T02:46:37.643Z,99926.25
2019-05-30T02:49:27.462Z,99919.80
2019-05-30T02:52:17.256Z,99925.78
2019-05-30T02:55:09.139Z,99944.20
2019-05-30T02:57:50.463Z,99936.81
2019-05-30T03:03:24.706Z,99929.25
2019-05-30T03:06:14.706Z,99929.70
2019-05-30T03:11:51.025Z,99937.49
2019-05-30T03:14:40.808Z,99939.67
2019-05-30T03:17:30.600Z,99939.67
2019-05-30T03:20:23.264Z,99955.17
2019-05-30T03:23:05.297Z,99941.97
2019-05-30T03:25:40.903Z,99951.83
2019-05-30T03:28:30.693Z,99954.75
2019-05-30T03:34:44.817Z,99977.50
2019-05-30T03:37:34.617Z,99968.06
2019-05-30T03:40:25.733Z,99974.16
2019-05-30T03:43:03.856Z,99976.66
2019-05-30T04:16:34.250Z,100029.92
2019-05-30T04:19:24.052Z,100015.86
2019-05-30T04:22:15.355Z,100035.50
2019-05-30T04:24:56.693Z,100030.37
2019-05-30T04:27:27.148Z,100032.48
2019-05-30T04:30:18.540Z,100031.35
2019-05-30T04:33:17.164Z,100038.18
2019-05-30T04:35:43.728Z,100040.69
2019-05-30T04:38:33.510Z,100045.44
2019-05-30T04:41:23.268Z,100041.54
2019-05-30T04:44:14.484Z,100046.66
2019-05-30T04:47:04.576Z,100051.76
2019-05-30T04:49:54.354Z,100058.25
2019-05-30T04:52:44.101Z,100064.22
2019-05-30T04:55:33.893Z,100058.19
2019-05-30T04:58:04.324Z,100063.80
2019-05-30T05:00:54.106Z,100064.63
2019-05-30T05:03:46.149Z,100092.83
2019-05-30T05:06:26.627Z,100080.36
2019-05-30T05:09:17.990Z,100067.16
2019-05-30T05:11:59.227Z,100076.06
2019-05-30T05:14:49.004Z,100070.12
2019-05-30T05:17:38.837Z,100076.86
2019-05-30T05:20:28.588Z,100080.61
2019-05-30T05:23:04.704Z,100082.72
2019-05-30T05:26:00.891Z,100076.28
2019-05-30T05:28:32.084Z,100075.40
2019-05-30T05:31:22.457Z,100087.30
2019-05-30T05:34:04.796Z,100085.55
2019-05-30T05:36:54.586Z,100091.05
2019-05-30T05:39:44.378Z,100090.28
2019-05-30T05:42:34.158Z,100096.99
2019-05-30T05:45:24.693Z,100086.64
2019-05-30T05:48:06.866Z,100096.44
2019-05-30T05:50:56.660Z,100090.70
2019-05-30T05:53:27.144Z,100095.86
2019-05-30T05:55:57.526Z,100101.28
2019-05-30T05:58:29.250Z,100101.13
2019-05-30T06:01:06.138Z,100098.56
2019-05-30T06:03:36.622Z,100103.23
2019-05-30T06:06:27.385Z,100113.06
2019-05-30T06:09:09.360Z,100104.27
2019-05-30T06:11:59.158Z,100116.84
2019-05-30T06:14:29.578Z,100115.09
2019-05-30T06:17:19.376Z,100115.44
2019-05-30T06:20:09.325Z,100117.72
2019-05-30T06:22:39.769Z,100115.95
2019-05-30T06:25:32.474Z,100121.44
2019-05-30T06:28:12.521Z,100121.22
2019-05-30T06:31:02.295Z,100128.30
2019-05-30T06:33:52.101Z,100123.19
2019-05-30T06:36:41.883Z,100137.59
2019-05-30T06:39:31.706Z,100134.12
2019-05-30T06:42:21.719Z,100132.16
2019-05-30T06:44:59.056Z,100143.67
2019-05-30T06:47:48.864Z,100137.52
2019-05-30T06:50:39.017Z,100125.61
2019-05-30T06:53:29.348Z,100147.47
2019-05-30T06:56:13.240Z,100144.00
2019-05-30T06:59:03.084Z,100146.22
2019-05-30T07:01:52.871Z,100136.52
2019-05-30T07:04:51.425Z,100154.12
2019-05-30T07:07:34.294Z,100150.78
2019-05-30T07:10:11.863Z,100154.92
2019-05-30T07:13:01.687Z,100151.53
2019-05-30T07:15:34.261Z,100160.80
2019-05-30T07:18:23.642Z,100156.08
2019-05-30T07:21:13.416Z,100163.49
2019-05-30T07:24:23.737Z,100151.49
2019-05-30T07:27:05.752Z,100163.27
2019-05-30T07:29:36.151Z,100171.37
2019-05-30T07:38:01.918Z,100165.33
2019-05-30T07:40:51.776Z,100174.97
2019-05-30T07:43:24.890Z,100167.10
2019-05-30T07:46:13.796Z,100169.78
2019-05-30T07:49:03.568Z,100169.08
2019-05-30T07:51:53.343Z,100170.73
2019-05-30T07:54:43.154Z,100175.13
2019-05-30T07:57:33.267Z,100193.68
2019-05-30T08:00:57.433Z,100180.72
2019-05-30T08:03:47.217Z,100187.73
2019-05-30T08:06:37.909Z,100199.08
2019-05-30T08:09:20.315Z,100196.29
2019-05-30T08:12:10.131Z,100200.09
2019-05-30T08:14:59.883Z,100200.75
2019-05-30T08:17:49.687Z,100203.08
2019-05-30T08:20:39.419Z,100202.81
2019-05-30T08:23:30.091Z,100191.67
2019-05-30T08:26:20.680Z,100204.88
2019-05-30T08:29:10.497Z,100197.59
2019-05-30T08:32:00.281Z,100197.21
2019-05-30T08:34:50.054Z,100237.03
2019-05-30T08:37:39.831Z,100216.57
2019-05-30T08:40:29.588Z,100234.18
2019-05-30T08:43:19.478Z,100206.84
2019-05-30T08:46:09.275Z,100216.73
2019-05-30T08:49:01.697Z,100228.98
2019-05-30T08:51:42.448Z,100212.91
2019-05-30T08:54:32.305Z,100217.28
2019-05-30T08:57:22.088Z,100231.53
2019-05-30T08:59:52.530Z,100231.30
2019-05-30T09:02:42.917Z,100224.98
2019-05-30T09:05:27.849Z,100221.27
2019-05-30T09:08:17.642Z,100217.12
2019-05-30T09:11:07.416Z,100226.77
2019-05-30T09:13:38.882Z,100229.10
2019-05-30T09:16:23.103Z,100217.06
2019-05-30T09:19:12.891Z,100223.11
2019-05-30T09:22:15.700Z,100222.83
2019-05-30T09:24:46.683Z,100214.20
2019-05-30T09:27:29.871Z,100232.31
2019-05-30T09:33:23.618Z,100218.27
2019-05-30T09:36:14.088Z,100216.02
2019-05-30T09:38:56.484Z,100217.23
2019-05-30T09:41:46.278Z,100233.41
2019-05-30T09:44:50.443Z,100220.14
2019-05-30T09:47:24.220Z,100220.46
2019-05-30T09:53:20.282Z,100241.73
2019-05-30T09:56:10.060Z,100221.41
2019-05-30T09:58:59.931Z,100219.48
2019-05-30T10:01:50.147Z,100227.59
2019-05-30T10:04:32.716Z,100225.58
2019-05-30T10:07:22.550Z,100229.63
2019-05-30T10:10:12.634Z,100231.45
2019-05-30T10:13:02.430Z,100226.98
2019-05-30T10:15:52.563Z,100234.90
2019-05-30T10:18:36.302Z,100231.39
2019-05-30T10:21:26.094Z,100226.86
2019-05-30T10:24:15.916Z,100229.58
2019-05-30T10:27:05.728Z,100226.47
2019-05-30T10:29:55.524Z,100230.41
2019-05-30T10:32:46.750Z,100227.86
2019-05-30T10:35:30.107Z,100223.59
2019-05-30T10:38:12.628Z,100234.69
2019-05-30T10:41:02.483Z,100225.25
2019-05-30T10:43:53.151Z,100226.77
2019-05-30T10:46:34.831Z,100224.23
2019-05-30T10:49:34.410Z,100220.88
2019-05-30T10:52:09.858Z,100224.48
2019-05-30T10:54:59.630Z,100222.17
2019-05-30T10:57:50.061Z,100235.18
2019-05-30T11:00:53.638Z,100219.44
2019-05-30T11:03:35.201Z,100228.48
2019-05-30T11:12:37.070Z,100230.30
2019-05-30T11:15:26.826Z,100235.06
2019-05-30T11:18:16.669Z,100222.23
2019-05-30T11:21:06.497Z,100220.84
2019-05-30T11:23:56.763Z,100223.59
2019-05-30T11:26:39.161Z,100217.55
2019-05-30T11:29:29.011Z,100216.64
2019-05-30T11:32:18.738Z,100211.02
2019-05-30T11:35:08.652Z,100217.56
2019-05-30T11:37:59.267Z,100215.41
2019-05-30T11:40:43.206Z,100201.28
2019-05-30T11:43:33.063Z,100203.56
2019-05-30T11:46:22.863Z,100198.21
2019-05-30T11:49:12.669Z,100197.94
2019-05-30T11:51:43.135Z,100201.38
2019-05-30T11:54:33.044Z,100223.05
2019-05-30T11:57:22.872Z,100200.30
2019-05-30T12:03:14.476Z,100193.86
2019-05-30T12:06:04.265Z,100194.20
2019-05-30T12:08:54.738Z,100198.53
2019-05-30T12:11:36.667Z,100199.48
2019-05-30T12:14:26.496Z,100191.48
2019-05-30T12:17:16.273Z,100201.33
2019-05-30T12:23:11.415Z,100199.23
2019-05-30T12:26:02.291Z,100198.81
2019-05-30T12:28:45.699Z,100203.19
2019-05-30T12:31:35.619Z,100204.48
2019-05-30T12:34:25.430Z,100205.67
2019-05-30T12:37:15.248Z,100201.38
2019-05-30T12:43:09.376Z,100201.89
2019-05-30T12:45:59.197Z,100203.02
2019-05-30T12:48:48.970Z,100205.84
2019-05-30T12:51:38.764Z,100207.91
2019-05-30T12:54:28.566Z,100202.52
2019-05-30T12:57:18.297Z,100207.47
2019-05-30T13:02:52.543Z,100209.55
2019-05-30T13:05:42.378Z,100210.70
2019-05-30T13:08:32.248Z,100208.39
2019-05-30T13:11:22.052Z,100207.48
2019-05-30T13:14:11.909Z,100206.70
2019-05-30T13:17:01.909Z,100202.53
2019-05-30T13:19:32.299Z,100205.42
2019-05-30T13:22:22.131Z,100198.55
2019-05-30T13:24:52.565Z,100200.58
2019-05-30T13:27:42.418Z,100192.92
2019-05-30T13:30:32.293Z,100194.70
2019-05-30T13:33:22.101Z,100194.92
2019-05-30T13:36:11.872Z,100193.93
2019-05-30T13:39:01.655Z,100197.59
2019-05-30T13:41:51.501Z,100202.06
2019-05-30T13:44:41.321Z,100198.02
2019-05-30T13:47:31.111Z,100197.70
2019-05-30T13:53:05.353Z,100199.52
2019-05-30T13:55:56.400Z,100191.52
2019-05-30T13:58:26.801Z,100190.69
2019-05-30T14:01:16.561Z,100198.57
2019-05-30T14:04:06.443Z,100203.55
2019-05-30T14:06:56.187Z,100190.46
2019-05-30T14:09:45.992Z,100197.77
2019-05-30T14:12:35.803Z,100188.95
2019-05-30T14:15:25.707Z,100193.16
2019-05-30T14:18:15.477Z,100199.55
2019-05-30T14:21:05.314Z,100202.98
2019-05-30T14:23:55.116Z,100200.11
2019-05-30T14:26:44.910Z,100196.98
2019-05-30T14:29:34.724Z,100209.17
2019-05-30T14:32:24.541Z,100207.03
2019-05-30T14:34:54.934Z,100203.15
2019-05-30T14:37:44.737Z,100204.34
2019-05-30T14:40:34.556Z,100207.75
2019-05-30T14:43:05.270Z,100203.25
2019-05-30T14:45:48.442Z,100206.36
2019-05-30T14:48:38.231Z,100204.69
2019-05-30T14:51:28.045Z,100207.06
2019-05-30T14:54:17.847Z,100199.22
2019-05-30T14:57:08.819Z,100204.02
2019-05-30T14:59:50.535Z,100203.73
2019-05-30T15:02:40.321Z,100203.09
2019-05-30T15:05:30.193Z,100201.75
2019-05-30T15:08:19.974Z,100196.73
2019-05-30T15:11:09.732Z,100196.18
2019-05-30T15:13:59.516Z,100204.10
2019-05-30T15:16:49.301Z,100199.97
2019-05-30T15:19:39.074Z,100205.81
2019-05-30T15:22:28.837Z,100201.81
2019-05-30T15:24:59.256Z,100200.06
2019-05-30T15:27:49.044Z,100196.06
2019-05-30T15:30:38.814Z,100190.00
2019-05-30T15:33:28.601Z,100189.92
2019-05-30T15:36:18.407Z,100191.89
2019-05-30T15:39:09.012Z,100190.70
2019-05-30T15:41:40.249Z,100192.52
2019-05-30T15:44:30.042Z,100183.63
2019-05-30T15:47:19.843Z,100180.00
2019-05-30T15:53:13.092Z,100179.89
2019-05-30T15:56:03.726Z,100171.96
2019-05-30T15:58:53.536Z,100175.14
2019-05-30T16:01:43.322Z,100182.86
2019-05-30T16:04:33.123Z,100182.77
2019-05-30T16:07:22.918Z,100180.11
2019-05-30T16:10:12.994Z,100174.12
2019-05-30T16:12:43.534Z,100172.24
2019-05-30T16:15:33.344Z,100181.55
2019-05-30T16:18:23.126Z,100177.92
2019-05-30T16:20:53.532Z,100181.20
2019-05-30T16:23:43.312Z,100173.30
2019-05-30T16:26:33.124Z,100178.64
2019-05-30T16:29:22.893Z,100182.00
2019-05-30T16:32:13.806Z,100180.94
2019-05-30T16:35:04.282Z,100179.38
2019-05-30T16:37:54.083Z,100176.27
2019-05-30T16:40:24.459Z,100178.86
2019-05-30T16:43:14.301Z,100179.08
2019-05-30T16:46:04.087Z,100182.82
2019-05-30T16:48:34.649Z,100179.22
2019-05-30T16:51:24.472Z,100180.72
2019-05-30T16:54:15.136Z,100177.72
2019-05-30T16:57:05.745Z,100175.80
2019-05-30T16:59:55.536Z,100179.23
2019-05-30T17:02:45.334Z,100182.17
2019-05-30T17:05:35.157Z,100182.30
2019-05-30T17:08:26.265Z,100186.86
2019-05-30T17:11:10.082Z,100182.00
2019-05-30T17:13:59.902Z,100180.94
2019-05-30T17:16:49.753Z,100182.81
2019-05-30T17:19:39.840Z,100184.73
2019-05-30T17:22:17.092Z,100190.47
2019-05-30T17:25:07.210Z,100183.77
2019-05-30T17:27:37.762Z,100185.75
2019-05-30T17:30:27.771Z,100194.41
2019-05-30T17:33:20.070Z,100195.77
2019-05-30T17:36:09.165Z,100193.76
2019-05-30T17:38:58.946Z,100188.78
2019-05-30T17:41:48.749Z,100193.22
2019-05-30T17:44:38.564Z,100198.48
2019-05-30T17:47:29.465Z,100198.17
2019-05-30T17:50:50.755Z,100205.11
2019-05-30T17:53:40.580Z,100200.50
2019-05-30T17:56:30.433Z,100201.46
2019-05-30T17:59:20.273Z,100198.16
2019-05-30T18:02:10.436Z,100198.27
2019-05-30T18:04:41.261Z,100204.34
2019-05-30T18:07:31.229Z,100204.86
2019-05-30T18:10:21.133Z,100205.78
2019-05-30T18:13:11.002Z,100210.19
2019-05-30T18:16:00.864Z,100209.80
2019-05-30T18:18:50.698Z,100209.70
2019-05-30T18:21:41.448Z,100204.60
2019-05-30T18:24:31.791Z,100210.30
2019-05-30T18:27:08.855Z,100212.50
2019-05-30T18:29:58.660Z,100210.41
2019-05-30T18:32:30.233Z,100214.70
2019-05-30T18:35:20.554Z,100213.95
2019-05-30T18:38:10.392Z,100215.77
2019-05-30T18:41:11.091Z,100220.53
2019-05-30T18:43:42.770Z,100219.09
2019-05-30T18:46:33.357Z,100219.73
2019-05-30T18:49:17.072Z,100219.51
2019-05-30T18:52:06.881Z,100222.46
2019-05-30T18:54:56.770Z,100218.23
2019-05-30T18:57:27.261Z,100217.52
2019-05-30T19:00:18.474Z,100217.99
2019-05-30T19:02:54.825Z,100223.28
2019-05-30T19:05:44.681Z,100234.81
2019-05-30T19:08:34.539Z,100233.00
2019-05-30T19:11:27.972Z,100234.19
2019-05-30T19:14:07.928Z,100236.33
2019-05-30T19:16:57.767Z,100239.81
2019-05-30T19:19:51.098Z,100244.90
2019-05-30T19:28:01.643Z,100258.81
2019-05-30T19:30:51.497Z,100271.14
2019-05-30T19:33:41.378Z,100246.29
2019-05-30T19:36:31.208Z,100267.72
2019-05-30T19:39:21.427Z,100257.57
2019-05-30T19:42:11.258Z,100267.09
2019-05-30T19:45:01.178Z,100271.42
2019-05-30T19:47:51.027Z,100270.56
2019-05-30T19:50:40.917Z,100266.28
2019-05-30T19:53:30.904Z,100272.84
2019-05-30T19:56:01.551Z,100280.25
2019-05-30T19:58:51.302Z,100274.31
2019-05-30T20:01:41.125Z,100282.06
2019-05-30T20:04:32.146Z,100284.71
2019-05-30T20:07:08.600Z,100282.18
2019-05-30T20:10:01.774Z,100265.05
2019-05-30T20:12:41.871Z,100288.60
2019-05-30T20:15:31.688Z,100283.89
2019-05-30T20:18:21.539Z,100284.36
2019-05-30T20:21:11.341Z,100282.66
2019-05-30T20:24:01.164Z,100283.11
2019-05-30T20:26:32.400Z,100282.66
2019-05-30T20:29:23.241Z,100284.05
2019-05-30T20:32:13.059Z,100298.72
2019-05-30T20:35:02.939Z,100303.86
2019-05-30T20:37:52.767Z,100301.76
2019-05-30T20:40:43.037Z,100298.80
2019-05-30T20:43:20.176Z,100298.45
2019-05-30T20:49:14.649Z,100301.55
2019-05-30T20:52:04.438Z,100306.72
2019-05-30T20:54:35.276Z,100305.03
2019-05-30T20:57:46.709Z,100309.31
2019-05-30T21:00:56.218Z,100315.73
2019-05-30T21:03:46.002Z,100314.91
2019-05-30T21:06:36.670Z,100312.74
2019-05-30T21:09:27.865Z,100314.48
2019-05-30T21:21:08.979Z,100316.81
2019-05-30T21:23:58.792Z,100318.81
2019-05-30T21:26:31.249Z,100318.47
2019-05-30T21:32:26.725Z,100321.97
2019-05-30T21:35:16.783Z,100319.80
2019-05-30T21:38:06.667Z,100325.28
2019-05-30T21:40:56.447Z,100321.58
2019-05-30T21:43:46.836Z,100322.48
2019-05-30T21:46:29.108Z,100321.11
2019-05-30T21:49:18.908Z,100316.71
2019-05-30T21:52:08.699Z,100312.86
2019-05-30T21:54:58.532Z,100315.00
2019-05-30T21:57:28.988Z,100321.84
2019-05-30T22:03:25.018Z,100318.85
2019-05-30T22:06:14.859Z,100315.47
2019-05-30T22:12:08.997Z,100313.17
2019-05-30T22:15:17.789Z,100308.57
2019-05-30T22:18:07.654Z,100310.22
2019-05-30T22:24:26.638Z,100311.95
2019-05-30T22:27:16.423Z,100314.60
2019-05-30T22:30:06.749Z,100312.53
2019-05-30T22:32:56.628Z,100316.23
2019-05-30T22:35:46.786Z,100308.81
2019-05-30T22:38:27.050Z,100310.22
2019-05-30T22:41:16.822Z,100309.78
2019-05-30T22:46:50.315Z,100307.57
2019-05-30T22:49:40.075Z,100307.84
2019-05-30T22:52:29.854Z,100300.64
2019-05-30T22:55:21.473Z,100304.29
2019-05-30T22:57:57.880Z,100305.06
2019-05-30T23:00:46.161Z,100304.76
2019-05-30T23:03:18.113Z,100297.52
2019-05-30T23:06:07.964Z,100298.06
2019-05-30T23:08:57.799Z,100298.73
2019-05-30T23:11:47.743Z,100297.52
2019-05-30T23:14:18.431Z,100298.92
2019-05-30T23:17:08.268Z,100296.73
2019-05-30T23:19:58.136Z,100299.48
2019-05-30T23:22:28.634Z,100302.19
2019-05-30T23:25:18.438Z,100297.52
2019-05-30T23:28:08.195Z,100306.95
2019-05-30T23:30:38.610Z,100300.47
2019-05-30T23:33:28.386Z,100298.84
2019-05-30T23:36:18.244Z,100301.45
2019-05-30T23:39:08.210Z,100297.86
2019-05-30T23:41:59.239Z,100295.38
2019-05-30T23:44:49.486Z,100290.86
2019-05-30T23:47:39.301Z,100286.80
2019-05-30T23:50:29.083Z,100286.16
2019-05-30T23:53:18.881Z,100285.52
2019-05-30T23:56:08.656Z,100283.89
2019-05-30T23:58:58.901Z,100278.27
